createdAt,value
2022-10-22T00:00:55.962Z,14.23
2022-10-22T00:03:22.571Z,25.73
2022-10-22T00:05:49.105Z,29.67
2022-10-22T00:08:15.517Z,20.02
2022-10-22T00:10:42.295Z,30.80
2022-10-22T00:13:11.182Z,21.35
2022-10-22T00:15:37.694Z,29.23
2022-10-22T00:18:04.366Z,15.60
2022-10-22T00:20:30.985Z,21.95
2022-10-22T00:22:57.478Z,23.80
2022-10-22T00:25:23.980Z,29.48
2022-10-22T00:27:50.513Z,32.90
2022-10-22T00:30:22.559Z,24.70
2022-10-22T00:32:49.038Z,26.30
2022-10-22T00:35:15.529Z,27.05
2022-10-22T00:37:41.956Z,17.92
2022-10-22T00:40:09.217Z,23.55
2022-10-22T00:42:35.645Z,35.90
2022-10-22T00:45:08.278Z,36.97
2022-10-22T00:47:41.577Z,32.70
2022-10-22T00:50:21.732Z,29.20
2022-10-22T00:52:49.318Z,41.08
2022-10-22T00:55:16.461Z,36.30
2022-10-22T00:57:43.459Z,30.48
2022-10-22T01:00:10.546Z,32.10
2022-10-22T01:02:37.107Z,41.20
2022-10-22T01:05:04.725Z,29.20
2022-10-22T01:07:31.398Z,24.92
2022-10-22T01:10:06.991Z,40.00
2022-10-22T01:12:45.554Z,28.95
2022-10-22T01:15:42.604Z,28.52
2022-10-22T01:18:29.503Z,25.95
2022-10-22T01:21:22.300Z,36.58
2022-10-22T01:23:54.435Z,32.13
2022-10-22T01:26:54.951Z,35.30
2022-10-22T01:29:38.571Z,37.88
2022-10-22T01:32:11.065Z,41.22
2022-10-22T01:34:40.921Z,37.83
2022-10-22T01:37:09.857Z,33.20
2022-10-22T01:39:37.963Z,23.55
2022-10-22T01:42:04.434Z,23.05
2022-10-22T01:44:33.854Z,26.35
2022-10-22T01:47:22.250Z,37.83
2022-10-22T01:50:28.444Z,33.97
2022-10-22T01:53:12.830Z,22.67
2022-10-22T01:56:16.969Z,33.45
2022-10-22T01:59:04.514Z,24.92
2022-10-22T02:02:12.115Z,31.98
2022-10-22T02:04:48.469Z,39.08
2022-10-22T02:07:19.524Z,41.10
2022-10-22T02:09:46.867Z,28.10
2022-10-22T02:12:14.892Z,24.75
2022-10-22T02:14:43.986Z,39.22
2022-10-22T02:17:15.998Z,35.10
2022-10-22T02:19:46.460Z,33.08
2022-10-22T02:22:13.457Z,46.97
2022-10-22T02:24:40.047Z,34.03
2022-10-22T02:27:16.734Z,41.38
2022-10-22T02:30:07.247Z,32.22
2022-10-22T02:32:43.690Z,50.08
2022-10-22T02:35:14.989Z,47.03
2022-10-22T02:37:42.496Z,41.42
2022-10-22T02:40:09.505Z,48.38
2022-10-22T02:42:37.916Z,43.78
2022-10-22T02:45:05.554Z,44.60
2022-10-22T02:47:32.348Z,44.22
2022-10-22T02:49:58.791Z,25.73
2022-10-22T02:52:25.232Z,20.73
2022-10-22T02:54:51.671Z,31.50
2022-10-22T02:57:18.148Z,23.27
2022-10-22T02:59:44.600Z,35.08
2022-10-22T03:02:11.022Z,35.70
2022-10-22T03:04:37.504Z,37.97
2022-10-22T03:07:03.952Z,37.00
2022-10-22T03:09:30.439Z,49.75
2022-10-22T03:11:56.931Z,47.10
2022-10-22T03:14:23.374Z,31.90
2022-10-22T03:16:49.885Z,39.75
2022-10-22T03:19:16.449Z,37.40
2022-10-22T03:21:50.459Z,37.67
2022-10-22T03:24:22.829Z,36.03
2022-10-22T03:26:51.826Z,31.50
2022-10-22T03:29:21.502Z,30.38
2022-10-22T03:31:47.943Z,41.63
2022-10-22T03:34:14.734Z,45.85
2022-10-22T03:36:41.946Z,51.42
2022-10-22T03:39:09.396Z,45.72
2022-10-22T03:41:36.534Z,37.33
2022-10-22T03:44:04.447Z,36.47
2022-10-22T03:46:30.966Z,27.02
2022-10-22T03:48:57.391Z,38.92
2022-10-22T03:51:27.019Z,34.05
2022-10-22T03:53:53.807Z,29.08
2022-10-22T03:56:20.659Z,42.90
2022-10-22T03:58:47.098Z,39.65
2022-10-22T04:01:14.293Z,27.65
2022-10-22T04:03:40.886Z,47.47
2022-10-22T04:06:11.055Z,46.83
2022-10-22T04:08:39.952Z,42.25
2022-10-22T04:11:06.685Z,44.00
2022-10-22T04:13:33.119Z,44.60
2022-10-22T04:16:32.728Z,24.77
2022-10-22T04:18:59.443Z,29.67
2022-10-22T04:21:26.068Z,16.48
2022-10-22T04:23:53.307Z,29.20
2022-10-22T04:26:20.587Z,22.63
2022-10-22T04:28:50.397Z,35.10
2022-10-22T04:31:20.103Z,41.13
2022-10-22T04:33:47.027Z,35.85
2022-10-22T04:36:18.652Z,22.85
2022-10-22T04:38:46.867Z,24.30
2022-10-22T04:41:21.486Z,17.75
2022-10-22T04:43:48.418Z,16.95
2022-10-22T04:46:17.185Z,18.92
2022-10-22T04:48:46.008Z,19.05
2022-10-22T04:51:17.757Z,35.75
2022-10-22T04:53:45.036Z,27.52
2022-10-22T04:56:19.785Z,21.70
2022-10-22T04:58:48.538Z,15.10
2022-10-22T05:01:17.766Z,35.65
2022-10-22T05:03:45.168Z,28.42
2022-10-22T05:08:44.653Z,29.92
2022-10-22T05:11:16.865Z,24.45
2022-10-22T05:13:43.660Z,13.60
2022-10-22T05:16:12.071Z,26.83
2022-10-22T05:18:40.407Z,34.67
2022-10-22T05:21:12.603Z,22.33
2022-10-22T05:23:39.226Z,36.00
2022-10-22T05:26:07.933Z,28.73
2022-10-22T05:28:35.201Z,16.00
2022-10-22T05:31:03.624Z,31.35
2022-10-22T05:33:33.253Z,36.30
2022-10-22T05:36:00.863Z,19.38
2022-10-22T05:38:27.410Z,24.30
2022-10-22T05:41:04.506Z,29.08
2022-10-22T05:43:31.127Z,27.48
2022-10-22T05:46:05.272Z,40.28
2022-10-22T05:51:05.577Z,29.00
2022-10-22T05:53:36.987Z,44.90
2022-10-22T05:58:31.562Z,33.15
2022-10-22T06:01:06.940Z,46.08
2022-10-22T06:03:33.847Z,41.33
2022-10-22T06:06:02.854Z,36.05
2022-10-22T06:08:30.470Z,26.08
2022-10-22T06:10:57.689Z,32.40
2022-10-22T06:13:24.147Z,39.65
2022-10-22T06:15:53.435Z,43.97
2022-10-22T06:18:20.209Z,38.42
2022-10-22T06:20:47.611Z,34.35
2022-10-22T06:23:14.860Z,41.30
2022-10-22T06:25:41.823Z,33.50
2022-10-22T06:28:08.251Z,30.92
2022-10-22T06:30:34.840Z,30.77
2022-10-22T06:33:01.270Z,45.15
2022-10-22T06:35:27.701Z,42.17
2022-10-22T06:37:54.139Z,35.53
2022-10-22T06:40:21.402Z,38.72
2022-10-22T06:42:47.874Z,43.10
2022-10-22T06:45:14.591Z,32.05
2022-10-22T06:47:41.166Z,41.72
2022-10-22T06:50:08.088Z,24.65
2022-10-22T06:52:34.520Z,46.25
2022-10-22T06:55:01.003Z,42.58
2022-10-22T06:57:27.476Z,34.35
2022-10-22T06:59:53.917Z,36.95
2022-10-22T07:02:20.347Z,32.90
2022-10-22T07:04:46.897Z,39.90
2022-10-22T07:07:14.872Z,27.52
2022-10-22T07:09:41.395Z,43.33
2022-10-22T07:12:07.813Z,33.92
2022-10-22T07:14:34.244Z,40.05
2022-10-22T07:17:00.706Z,39.65
2022-10-22T07:19:27.175Z,41.80
2022-10-22T07:21:53.652Z,45.13
2022-10-22T07:24:20.129Z,39.60
2022-10-22T07:26:46.769Z,44.58
2022-10-22T07:29:15.381Z,41.65
2022-10-22T07:31:42.371Z,42.35
2022-10-22T07:34:09.316Z,36.42
2022-10-22T07:36:36.060Z,36.67
2022-10-22T07:39:02.816Z,34.47
2022-10-22T07:41:30.966Z,24.40
2022-10-22T07:43:58.116Z,40.70
2022-10-22T07:46:25.340Z,34.53
2022-10-22T07:48:51.777Z,31.10
2022-10-22T07:51:18.259Z,44.40
2022-10-22T07:53:44.717Z,42.22
2022-10-22T07:56:11.349Z,30.73
2022-10-22T07:58:38.035Z,20.30
2022-10-22T08:01:05.802Z,43.65
2022-10-22T08:03:33.118Z,43.20
2022-10-22T08:06:00.938Z,32.65
2022-10-22T08:08:30.588Z,21.35
2022-10-22T08:10:59.745Z,14.35
2022-10-22T08:13:27.404Z,10.77
2022-10-22T08:15:57.273Z,9.75
2022-10-22T08:18:24.475Z,8.75
2022-10-22T08:20:51.587Z,6.82
2022-10-22T08:23:18.060Z,6.70
2022-10-22T08:25:44.549Z,4.75
2022-10-22T08:28:11.011Z,4.03
2022-10-22T08:30:38.625Z,3.90
2022-10-22T08:33:06.035Z,5.57
2022-10-22T08:35:32.734Z,4.78
2022-10-22T08:37:59.182Z,4.47
2022-10-22T08:40:31.934Z,4.57
2022-10-22T08:43:11.964Z,4.72
2022-10-22T08:45:57.963Z,4.28
2022-10-22T08:48:38.701Z,3.67
2022-10-22T08:51:05.791Z,3.33
2022-10-22T08:53:39.889Z,4.43
2022-10-22T08:56:06.538Z,2.60
2022-10-22T08:58:53.188Z,6.40
2022-10-22T09:01:45.542Z,2.97
2022-10-22T09:04:16.276Z,3.35
2022-10-22T09:06:44.412Z,3.22
2022-10-22T09:09:18.551Z,3.88
2022-10-22T09:11:56.575Z,3.00
2022-10-22T09:14:25.299Z,3.05
2022-10-22T09:17:09.835Z,5.10
2022-10-22T09:19:48.938Z,4.20
2022-10-22T09:22:36.818Z,4.57
2022-10-22T09:25:27.787Z,3.30
2022-10-22T09:27:58.595Z,3.00
2022-10-22T09:30:28.522Z,3.22
2022-10-22T09:33:01.104Z,2.53
2022-10-22T09:35:28.656Z,2.30
2022-10-22T09:37:57.011Z,2.20
2022-10-22T09:40:24.006Z,2.45
2022-10-22T09:42:50.523Z,2.47
2022-10-22T09:45:23.187Z,2.05
2022-10-22T09:48:01.541Z,2.22
2022-10-22T09:50:41.300Z,3.22
2022-10-22T09:53:27.009Z,2.40
2022-10-22T09:55:58.992Z,2.00
2022-10-22T09:58:26.387Z,2.25
2022-10-22T10:00:56.890Z,1.83
2022-10-22T10:03:26.899Z,1.40
2022-10-22T10:06:00.183Z,1.85
2022-10-22T10:08:29.811Z,1.25
2022-10-22T10:11:09.357Z,1.38
2022-10-22T10:13:53.925Z,1.55
2022-10-22T10:16:23.293Z,2.00
2022-10-22T10:19:14.052Z,2.30
2022-10-22T10:22:09.765Z,1.08
2022-10-22T10:25:03.488Z,1.73
2022-10-22T10:27:43.014Z,1.73
2022-10-22T10:30:19.554Z,2.65
2022-10-22T10:33:01.215Z,1.63
2022-10-22T10:35:58.598Z,0.95
2022-10-22T10:38:43.908Z,2.00
2022-10-22T10:41:17.595Z,1.92
2022-10-22T10:43:49.915Z,5.75
2022-10-22T10:46:36.920Z,2.05
2022-10-22T10:49:18.826Z,3.40
2022-10-22T10:51:50.172Z,2.08
2022-10-22T10:56:56.803Z,2.03
2022-10-22T10:59:54.738Z,0.85
2022-10-22T11:02:29.899Z,1.15
2022-10-22T11:05:13.013Z,2.05
2022-10-22T11:07:49.859Z,2.58
2022-10-22T11:10:25.945Z,2.50
2022-10-22T11:12:57.471Z,2.50
2022-10-22T11:15:29.872Z,1.92
2022-10-22T11:18:03.055Z,1.83
2022-10-22T11:20:50.282Z,2.30
2022-10-22T11:23:29.054Z,2.10
2022-10-22T11:25:55.576Z,4.90
2022-10-22T11:28:33.903Z,3.00
2022-10-22T11:31:05.002Z,1.90
2022-10-22T11:33:52.694Z,1.70
2022-10-22T11:36:27.286Z,2.30
2022-10-22T11:38:54.401Z,1.73
2022-10-22T11:41:27.423Z,3.55
2022-10-22T11:44:23.292Z,1.27
2022-10-22T11:46:57.252Z,3.67
2022-10-22T11:49:42.348Z,2.25
2022-10-22T11:52:24.135Z,2.00
2022-10-22T11:54:54.880Z,1.48
2022-10-22T11:57:27.199Z,1.60
2022-10-22T11:59:58.995Z,3.30
2022-10-22T12:02:28.484Z,2.03
2022-10-22T12:04:56.596Z,2.15
2022-10-22T12:08:00.003Z,3.05
2022-10-22T12:10:34.221Z,3.40
2022-10-22T12:13:24.620Z,1.65
2022-10-22T12:15:57.945Z,2.78
2022-10-22T12:18:33.022Z,3.28
2022-10-22T12:20:59.503Z,2.65
2022-10-22T12:23:31.469Z,1.85
2022-10-22T12:25:58.384Z,1.13
2022-10-22T12:28:24.833Z,1.00
2022-10-22T12:30:51.285Z,1.90
2022-10-22T12:33:21.583Z,2.55
2022-10-22T12:35:51.474Z,4.18
2022-10-22T12:38:21.366Z,2.90
2022-10-22T12:40:50.216Z,2.22
2022-10-22T12:43:19.975Z,3.22
2022-10-22T12:45:48.486Z,3.13
2022-10-22T12:48:25.300Z,1.60
2022-10-22T12:50:54.530Z,1.40
2022-10-22T12:53:27.791Z,1.60
2022-10-22T12:55:57.580Z,1.40
2022-10-22T12:58:29.845Z,4.07
2022-10-22T13:01:01.927Z,1.75
2022-10-22T13:03:39.891Z,1.45
2022-10-22T13:06:18.970Z,3.53
2022-10-22T13:08:56.463Z,2.15
2022-10-22T13:11:22.960Z,2.15
2022-10-22T13:13:49.401Z,3.25
2022-10-22T13:16:24.627Z,2.47
2022-10-22T13:18:52.898Z,2.67
2022-10-22T13:21:26.595Z,2.30
2022-10-22T13:23:58.431Z,2.58
2022-10-22T13:26:31.630Z,4.65
2022-10-22T13:29:01.073Z,1.40
2022-10-22T13:31:32.140Z,2.05
2022-10-22T13:34:09.719Z,2.63
2022-10-22T13:36:38.368Z,1.80
2022-10-22T13:39:07.912Z,2.05
2022-10-22T13:44:11.988Z,4.13
2022-10-22T13:46:42.529Z,2.28
2022-10-22T13:49:20.881Z,3.20
2022-10-22T13:51:47.763Z,3.42
2022-10-22T13:54:18.631Z,2.50
2022-10-22T13:56:45.748Z,2.67
2022-10-22T13:59:12.702Z,2.00
2022-10-22T14:01:39.365Z,2.03
2022-10-22T14:04:10.368Z,1.77
2022-10-22T14:09:15.020Z,1.63
2022-10-22T14:11:41.654Z,2.45
2022-10-22T14:14:09.145Z,3.20
2022-10-22T14:16:37.339Z,1.17
2022-10-22T14:19:07.217Z,4.63
2022-10-22T14:21:36.795Z,1.85
2022-10-22T14:24:03.380Z,4.43
2022-10-22T14:26:35.006Z,1.95
2022-10-22T14:29:10.723Z,2.47
2022-10-22T14:34:10.769Z,1.88
2022-10-22T14:36:37.278Z,2.05
2022-10-22T14:39:03.817Z,1.83
2022-10-22T14:41:30.802Z,1.80
2022-10-22T14:43:59.408Z,4.13
2022-10-22T14:46:25.899Z,3.50
2022-10-22T14:48:52.381Z,57.45
2022-10-22T14:51:21.349Z,10.90
2022-10-22T14:53:48.009Z,8.10
2022-10-22T14:56:18.635Z,19.95
2022-10-22T14:58:45.668Z,9.63
2022-10-22T15:01:12.935Z,9.63
2022-10-22T15:03:39.580Z,13.02
2022-10-22T15:06:06.910Z,10.15
2022-10-22T15:08:33.611Z,10.13
2022-10-22T15:11:03.329Z,7.47
2022-10-22T15:13:30.691Z,14.68
2022-10-22T15:15:58.085Z,10.73
2022-10-22T15:18:25.464Z,10.10
2022-10-22T15:21:01.321Z,5.82
2022-10-22T15:23:27.873Z,7.28
2022-10-22T15:25:55.022Z,10.95
2022-10-22T15:28:21.563Z,8.05
2022-10-22T15:30:59.133Z,7.78
2022-10-22T15:33:26.983Z,6.82
2022-10-22T15:35:53.829Z,9.23
2022-10-22T15:38:20.514Z,5.35
2022-10-22T15:40:47.087Z,8.38
2022-10-22T15:43:14.084Z,4.95
2022-10-22T15:45:40.683Z,4.95
2022-10-22T15:48:07.178Z,4.10
2022-10-22T15:50:38.365Z,6.47
2022-10-22T15:53:05.471Z,6.13
2022-10-22T15:55:32.134Z,3.33
2022-10-22T15:58:01.842Z,5.93
2022-10-22T16:00:30.064Z,3.63
2022-10-22T16:02:56.666Z,3.85
2022-10-22T16:05:23.172Z,4.57
2022-10-22T16:07:51.357Z,5.90
2022-10-22T16:10:17.887Z,6.25
2022-10-22T16:12:44.527Z,5.18
2022-10-22T16:15:11.205Z,3.42
2022-10-22T16:17:37.723Z,5.22
2022-10-22T16:20:04.753Z,3.25
2022-10-22T16:22:31.318Z,4.47
2022-10-22T16:24:57.800Z,4.05
2022-10-22T16:27:24.242Z,5.50
2022-10-22T16:29:50.716Z,4.55
2022-10-22T16:32:17.808Z,4.05
2022-10-22T16:34:44.323Z,4.40
2022-10-22T16:37:10.802Z,3.42
2022-10-22T16:39:37.315Z,5.28
2022-10-22T16:42:04.043Z,4.80
2022-10-22T16:44:30.547Z,7.82
2022-10-22T16:46:57.018Z,3.25
2022-10-22T16:49:23.786Z,2.80
2022-10-22T16:51:50.331Z,6.45
2022-10-22T16:54:16.945Z,3.58
2022-10-22T16:56:43.441Z,4.20
2022-10-22T16:59:09.897Z,3.38
2022-10-22T17:01:40.556Z,21.17
2022-10-22T17:04:08.001Z,53.03
2022-10-22T17:06:34.467Z,26.65
2022-10-22T17:09:01.037Z,16.65
2022-10-22T17:11:29.943Z,25.17
2022-10-22T17:13:57.561Z,6.00
2022-10-22T17:16:24.770Z,7.78
2022-10-22T17:18:53.916Z,7.47
2022-10-22T17:21:21.264Z,7.60
2022-10-22T17:23:48.942Z,8.55
2022-10-22T17:26:21.540Z,6.57
2022-10-22T17:28:48.979Z,5.97
2022-10-22T17:31:27.140Z,6.80
2022-10-22T17:33:56.233Z,5.95
2022-10-22T17:36:24.374Z,5.82
2022-10-22T17:38:53.640Z,5.70
2022-10-22T17:41:31.885Z,6.95
2022-10-22T17:44:01.161Z,5.50
2022-10-22T17:46:29.355Z,5.75
2022-10-22T17:48:58.160Z,4.65
2022-10-22T17:51:26.195Z,5.50
2022-10-22T17:53:53.080Z,6.50
2022-10-22T17:56:22.288Z,6.07
2022-10-22T17:58:49.488Z,7.53
2022-10-22T18:01:24.868Z,9.63
2022-10-22T18:03:52.820Z,12.13
2022-10-22T18:06:19.501Z,7.00
2022-10-22T18:08:46.077Z,5.88
2022-10-22T18:11:23.806Z,6.32
2022-10-22T18:13:51.780Z,7.63
2022-10-22T18:16:18.879Z,5.97
2022-10-22T18:18:47.498Z,7.15
2022-10-22T18:21:15.594Z,6.50
2022-10-22T18:23:42.498Z,3.95
2022-10-22T18:26:09.109Z,4.85
2022-10-22T18:28:36.530Z,8.13
2022-10-22T18:31:10.553Z,5.72
2022-10-22T18:33:37.197Z,4.43
2022-10-22T18:36:05.776Z,6.30
2022-10-22T18:38:32.382Z,7.07
2022-10-22T18:40:59.316Z,5.68
2022-10-22T18:43:26.503Z,6.68
2022-10-22T18:45:52.952Z,7.03
2022-10-22T18:48:22.795Z,6.53
2022-10-22T18:50:59.121Z,7.32
2022-10-22T18:53:25.611Z,4.95
2022-10-22T18:55:52.220Z,5.68
2022-10-22T18:58:18.682Z,5.57
2022-10-22T19:00:45.258Z,3.97
2022-10-22T19:03:13.353Z,7.10
2022-10-22T19:05:52.040Z,6.18
2022-10-22T19:08:19.603Z,4.20
2022-10-22T19:10:47.214Z,4.05
2022-10-22T19:13:16.048Z,5.70
2022-10-22T19:15:42.781Z,4.55
2022-10-22T19:18:09.728Z,7.22
2022-10-22T19:20:37.168Z,5.68
2022-10-22T19:23:04.089Z,5.28
2022-10-22T19:25:30.513Z,6.07
2022-10-22T19:27:57.043Z,6.90
2022-10-22T19:30:24.099Z,5.80
2022-10-22T19:32:50.608Z,5.45
2022-10-22T19:35:17.476Z,9.57
2022-10-22T19:37:48.208Z,4.70
2022-10-22T19:40:15.261Z,3.78
2022-10-22T19:42:44.228Z,4.47
2022-10-22T19:45:11.166Z,4.82
2022-10-22T19:47:37.603Z,6.47
2022-10-22T19:50:04.339Z,4.72
2022-10-22T19:52:30.780Z,5.00
2022-10-22T19:54:57.210Z,5.38
2022-10-22T19:57:23.646Z,7.38
2022-10-22T19:59:50.824Z,6.00
2022-10-22T20:02:18.760Z,4.32
2022-10-22T20:04:49.207Z,4.78
2022-10-22T20:07:17.145Z,4.70
2022-10-22T20:09:43.614Z,7.18
2022-10-22T20:12:10.056Z,5.72
2022-10-22T20:14:37.400Z,5.90
2022-10-22T20:17:03.987Z,7.05
2022-10-22T20:19:30.416Z,5.15
2022-10-22T20:21:56.855Z,5.75
2022-10-22T20:24:23.342Z,7.40
2022-10-22T20:26:49.784Z,4.78
2022-10-22T20:29:18.981Z,7.07
2022-10-22T20:31:46.639Z,5.32
2022-10-22T20:34:13.336Z,10.50
2022-10-22T20:36:40.322Z,8.43
2022-10-22T20:39:13.095Z,3.97
2022-10-22T20:41:40.606Z,5.10
2022-10-22T20:44:11.176Z,3.63
2022-10-22T20:46:37.719Z,3.45
2022-10-22T20:49:07.569Z,7.22
2022-10-22T20:51:36.363Z,5.55
2022-10-22T20:54:03.431Z,5.55
2022-10-22T20:56:29.934Z,4.85
2022-10-22T20:59:04.745Z,8.57
2022-10-22T21:01:37.040Z,6.57
2022-10-22T21:04:04.450Z,4.30
2022-10-22T21:06:31.041Z,7.20
2022-10-22T21:08:57.546Z,5.32
2022-10-22T21:11:24.149Z,7.75
2022-10-22T21:13:51.011Z,6.47
2022-10-22T21:16:19.035Z,6.18
2022-10-22T21:18:46.943Z,4.10
2022-10-22T21:21:13.617Z,5.45
2022-10-22T21:23:40.163Z,6.10
2022-10-22T21:26:06.827Z,3.22
2022-10-22T21:28:35.713Z,6.15
2022-10-22T21:31:07.424Z,5.72
2022-10-22T21:33:38.728Z,6.18
2022-10-22T21:38:32.649Z,6.43
2022-10-22T21:40:59.091Z,4.68
2022-10-22T21:43:25.520Z,5.85
2022-10-22T21:45:52.039Z,8.23
2022-10-22T21:48:18.455Z,5.85
2022-10-22T21:50:44.966Z,5.82
2022-10-22T21:53:12.234Z,5.25
2022-10-22T21:55:41.760Z,5.43
2022-10-22T21:58:08.618Z,4.38
2022-10-22T22:00:35.501Z,3.45
2022-10-22T22:03:02.357Z,4.07
2022-10-22T22:05:29.207Z,4.70
2022-10-22T22:07:55.681Z,6.32
2022-10-22T22:10:22.155Z,4.07
2022-10-22T22:12:51.136Z,7.90
2022-10-22T22:15:21.490Z,5.15
2022-10-22T22:17:47.962Z,7.30
2022-10-22T22:20:14.563Z,5.05
2022-10-22T22:22:41.285Z,4.80
2022-10-22T22:25:08.369Z,7.40
2022-10-22T22:27:34.834Z,147.13
2022-10-22T22:30:01.291Z,7.97
2022-10-22T22:32:27.707Z,7.97
2022-10-22T22:34:54.189Z,7.88
2022-10-22T22:37:20.621Z,5.35
2022-10-22T22:39:47.065Z,7.93
2022-10-22T22:42:13.476Z,4.38
2022-10-22T22:44:39.969Z,3.65
2022-10-22T22:47:06.392Z,4.30
2022-10-22T22:49:32.988Z,3.55
2022-10-22T22:51:59.491Z,4.30
2022-10-22T22:54:26.149Z,4.38
2022-10-22T22:56:52.579Z,6.80
2022-10-22T22:59:19.083Z,3.95
2022-10-22T23:01:48.596Z,3.35
2022-10-22T23:04:25.259Z,5.57
2022-10-22T23:06:52.178Z,4.85
2022-10-22T23:11:51.627Z,6.57
2022-10-22T23:14:19.556Z,2.97
2022-10-22T23:16:49.212Z,4.90
2022-10-22T23:19:17.809Z,3.40
2022-10-22T23:21:47.157Z,4.38
2022-10-22T23:24:16.947Z,5.93
2022-10-22T23:26:46.451Z,7.68
2022-10-22T23:29:24.692Z,5.75
2022-10-22T23:31:51.965Z,4.40
2022-10-22T23:34:21.852Z,4.93
2022-10-22T23:36:48.847Z,5.07
2022-10-22T23:39:18.382Z,6.70
2022-10-22T23:41:45.427Z,5.97
2022-10-22T23:44:12.862Z,4.05
2022-10-22T23:46:39.955Z,5.00
2022-10-22T23:49:08.345Z,4.78
2022-10-22T23:51:35.407Z,5.95
2022-10-22T23:54:04.974Z,3.90
2022-10-22T23:56:31.603Z,5.47
2022-10-22T23:58:58.836Z,5.28
